FDX1495 KEWR-KIAD
Flight info
| Callsign | FDX1495 |
|---|---|
| Flight time | 0h 41m |
| Altitude | 26000 |
| Route | PARKE HYPER9 |
| Aircraft | B77L/H-SDE1E2E3FGHIJ2J3J4J5M1RWXY/LB1D1 |
Departure
| Time | 2026-04-25 21:57 |
|---|---|
| Airport | Newark Liberty International Airport (KEWR) |
Arrival
| Time | 2026-04-25 22:38 |
|---|---|
| Airport | Washington Dulles International Airport (KIAD) |
| Time | Latitude | Longitude | Altitude | Speed | Heading |
|---|---|---|---|---|---|
| 2026-04-25 21:23 | 40.67725 | -74.18459 | 27 ft | 0 kts | 206° |
| 2026-04-25 21:40 | 40.67728 | -74.18457 | 26 ft | 3 kts | 205° |
| 2026-04-25 21:40 | 40.67753 | -74.18446 | 25 ft | 4 kts | 180° |
| 2026-04-25 21:40 | 40.67778 | -74.18454 | 26 ft | 4 kts | 142° |
| 2026-04-25 21:41 | 40.67795 | -74.18479 | 26 ft | 4 kts | 117° |
| 2026-04-25 21:41 | 40.67798 | -74.18488 | 25 ft | 1 kts | 116° |
| 2026-04-25 21:49 | 40.67798 | -74.18487 | 25 ft | 0 kts | 116° |
| 2026-04-25 21:49 | 40.67796 | -74.18480 | 26 ft | 3 kts | 115° |
| 2026-04-25 21:50 | 40.67787 | -74.18456 | 26 ft | 6 kts | 115° |
| 2026-04-25 21:50 | 40.67758 | -74.18352 | 27 ft | 12 kts | 112° |
| 2026-04-25 21:50 | 40.67717 | -74.18238 | 27 ft | 16 kts | 116° |
| 2026-04-25 21:50 | 40.67707 | -74.18213 | 27 ft | 2 kts | 116° |
| 2026-04-25 21:51 | 40.67700 | -74.18194 | 27 ft | 0 kts | 116° |
| 2026-04-25 21:51 | 40.67700 | -74.18193 | 27 ft | 1 kts | 116° |
| 2026-04-25 21:52 | 40.67696 | -74.18165 | 27 ft | 0 kts | 96° |
| 2026-04-25 21:53 | 40.67690 | -74.18156 | 27 ft | 2 kts | 135° |
| 2026-04-25 21:53 | 40.67675 | -74.18141 | 27 ft | 3 kts | 142° |
| 2026-04-25 21:53 | 40.67655 | -74.18121 | 27 ft | 7 kts | 142° |
| 2026-04-25 21:54 | 40.67603 | -74.18051 | 26 ft | 12 kts | 131° |
| 2026-04-25 21:54 | 40.67580 | -74.18013 | 27 ft | 0 kts | 124° |
| 2026-04-25 21:54 | 40.67569 | -74.17992 | 27 ft | 6 kts | 124° |
| 2026-04-25 21:54 | 40.67556 | -74.17940 | 27 ft | 6 kts | 79° |
| 2026-04-25 21:55 | 40.67593 | -74.17911 | 26 ft | 6 kts | 24° |
| 2026-04-25 21:55 | 40.67599 | -74.17907 | 27 ft | 0 kts | 25° |
| 2026-04-25 21:56 | 40.67869 | -74.17734 | 30 ft | 77 kts | 27° |
| 2026-04-25 21:56 | 40.68544 | -74.17300 | 29 ft | 136 kts | 25° |
| 2026-04-25 21:57 | 40.69537 | -74.16676 | 130 ft | 169 kts | 27° |
| 2026-04-25 21:57 | 40.70643 | -74.15960 | 489 ft | 184 kts | 33° |
| 2026-04-25 21:57 | 40.71637 | -74.14888 | 950 ft | 191 kts | 49° |
| 2026-04-25 21:57 | 40.72601 | -74.13654 | 1621 ft | 192 kts | 46° |
| 2026-04-25 21:58 | 40.73553 | -74.12436 | 2175 ft | 199 kts | 53° |
| 2026-04-25 21:58 | 40.74539 | -74.10899 | 2224 ft | 230 kts | 49° |
| 2026-04-25 21:58 | 40.75887 | -74.09684 | 2779 ft | 247 kts | 19° |
| 2026-04-25 21:58 | 40.77646 | -74.09731 | 3366 ft | 266 kts | 341° |
| 2026-04-25 21:59 | 40.79175 | -74.11120 | 4003 ft | 272 kts | 303° |
| 2026-04-25 21:59 | 40.79872 | -74.13386 | 4802 ft | 262 kts | 272° |
| 2026-04-25 21:59 | 40.80010 | -74.15725 | 5699 ft | 257 kts | 269° |
| 2026-04-25 22:00 | 40.79940 | -74.20303 | 7432 ft | 250 kts | 258° |
| 2026-04-25 22:00 | 40.79631 | -74.22581 | 8167 ft | 253 kts | 257° |
| 2026-04-25 22:00 | 40.79301 | -74.24881 | 8902 ft | 257 kts | 258° |
| 2026-04-25 22:00 | 40.78970 | -74.27207 | 9662 ft | 259 kts | 258° |
| 2026-04-25 22:01 | 40.78645 | -74.29535 | 10280 ft | 260 kts | 259° |
| 2026-04-25 22:01 | 40.78312 | -74.31972 | 10583 ft | 282 kts | 259° |
| 2026-04-25 22:01 | 40.77955 | -74.34629 | 10776 ft | 306 kts | 259° |
| 2026-04-25 22:01 | 40.77704 | -74.36513 | 10906 ft | 323 kts | 260° |
| 2026-04-25 22:02 | 40.77174 | -74.40535 | 11467 ft | 344 kts | 260° |
| 2026-04-25 22:02 | 40.76761 | -74.43689 | 12204 ft | 353 kts | 261° |
| 2026-04-25 22:02 | 40.76342 | -74.46908 | 13055 ft | 359 kts | 261° |
| 2026-04-25 22:02 | 40.75915 | -74.50177 | 13945 ft | 363 kts | 261° |
| 2026-04-25 22:03 | 40.75484 | -74.53494 | 14713 ft | 369 kts | 261° |
| 2026-04-25 22:03 | 40.75045 | -74.56856 | 15453 ft | 375 kts | 261° |
| 2026-04-25 22:03 | 40.74598 | -74.60273 | 16202 ft | 381 kts | 261° |
| 2026-04-25 22:03 | 40.74144 | -74.63740 | 16929 ft | 386 kts | 261° |
| 2026-04-25 22:04 | 40.73684 | -74.67242 | 17783 ft | 388 kts | 262° |
| 2026-04-25 22:04 | 40.73218 | -74.70777 | 18464 ft | 395 kts | 262° |
| 2026-04-25 22:04 | 40.72750 | -74.74324 | 19071 ft | 400 kts | 261° |
| 2026-04-25 22:04 | 40.72269 | -74.77956 | 19781 ft | 402 kts | 261° |
| 2026-04-25 22:05 | 40.71783 | -74.81611 | 20507 ft | 405 kts | 261° |
| 2026-04-25 22:05 | 40.71295 | -74.85280 | 21198 ft | 408 kts | 261° |
| 2026-04-25 22:05 | 40.70802 | -74.88980 | 21853 ft | 411 kts | 261° |
| 2026-04-25 22:05 | 40.70303 | -74.92714 | 22067 ft | 416 kts | 261° |
| 2026-04-25 22:06 | 40.69800 | -74.96463 | 22062 ft | 415 kts | 261° |
| 2026-04-25 22:06 | 40.69298 | -75.00201 | 22060 ft | 414 kts | 261° |
| 2026-04-25 22:06 | 40.68795 | -75.03938 | 22038 ft | 414 kts | 261° |
| 2026-04-25 22:06 | 40.68293 | -75.07673 | 22029 ft | 414 kts | 261° |
| 2026-04-25 22:07 | 40.67914 | -75.11371 | 22049 ft | 414 kts | 264° |
| 2026-04-25 22:07 | 40.67724 | -75.13930 | 22031 ft | 414 kts | 265° |
| 2026-04-25 22:07 | 40.67393 | -75.18935 | 22026 ft | 415 kts | 265° |
| 2026-04-25 22:07 | 40.67133 | -75.22723 | 22028 ft | 415 kts | 265° |
| 2026-04-25 22:08 | 40.66856 | -75.26508 | 22031 ft | 415 kts | 264° |
| 2026-04-25 22:08 | 40.66566 | -75.30297 | 22025 ft | 416 kts | 264° |
| 2026-04-25 22:08 | 40.66271 | -75.34080 | 22034 ft | 416 kts | 264° |
| 2026-04-25 22:08 | 40.65835 | -75.37828 | 22022 ft | 414 kts | 255° |
| 2026-04-25 22:09 | 40.64676 | -75.41281 | 22021 ft | 411 kts | 240° |
| 2026-04-25 22:09 | 40.63148 | -75.44523 | 22034 ft | 420 kts | 240° |
| 2026-04-25 22:09 | 40.61667 | -75.47844 | 22035 ft | 420 kts | 242° |
| 2026-04-25 22:09 | 40.60219 | -75.51182 | 22024 ft | 418 kts | 242° |
| 2026-04-25 22:10 | 40.58791 | -75.54506 | 22038 ft | 417 kts | 242° |
| 2026-04-25 22:10 | 40.57365 | -75.57827 | 22040 ft | 416 kts | 242° |
| 2026-04-25 22:10 | 40.55958 | -75.61096 | 22036 ft | 416 kts | 242° |
| 2026-04-25 22:10 | 40.54531 | -75.64400 | 22038 ft | 415 kts | 242° |
| 2026-04-25 22:11 | 40.53102 | -75.67701 | 22036 ft | 415 kts | 242° |
| 2026-04-25 22:11 | 40.51672 | -75.71000 | 22020 ft | 416 kts | 242° |
| 2026-04-25 22:11 | 40.50238 | -75.74302 | 22035 ft | 416 kts | 242° |
| 2026-04-25 22:11 | 40.48803 | -75.77602 | 22031 ft | 416 kts | 242° |
| 2026-04-25 22:12 | 40.47367 | -75.80905 | 22016 ft | 416 kts | 242° |
| 2026-04-25 22:12 | 40.45929 | -75.84207 | 22017 ft | 416 kts | 242° |
| 2026-04-25 22:12 | 40.44484 | -75.87510 | 22019 ft | 417 kts | 241° |
| 2026-04-25 22:12 | 40.43424 | -75.89614 | 22011 ft | 418 kts | 233° |
| 2026-04-25 22:13 | 40.40685 | -75.93259 | 22018 ft | 421 kts | 225° |
| 2026-04-25 22:13 | 40.38529 | -75.95868 | 22029 ft | 422 kts | 225° |
| 2026-04-25 22:13 | 40.36376 | -75.98488 | 22028 ft | 422 kts | 225° |
| 2026-04-25 22:13 | 40.34263 | -76.01095 | 22034 ft | 422 kts | 226° |
| 2026-04-25 22:14 | 40.32133 | -76.03756 | 22030 ft | 423 kts | 226° |
| 2026-04-25 22:14 | 40.30007 | -76.06432 | 22026 ft | 423 kts | 226° |
| 2026-04-25 22:14 | 40.27891 | -76.09104 | 22017 ft | 423 kts | 226° |
| 2026-04-25 22:14 | 40.25773 | -76.11781 | 22019 ft | 423 kts | 226° |
| 2026-04-25 22:15 | 40.23651 | -76.14462 | 22006 ft | 423 kts | 226° |
| 2026-04-25 22:15 | 40.21534 | -76.17131 | 22005 ft | 422 kts | 226° |
| 2026-04-25 22:15 | 40.19448 | -76.19761 | 22011 ft | 421 kts | 226° |
| 2026-04-25 22:16 | 40.15234 | -76.25062 | 22007 ft | 420 kts | 226° |
| 2026-04-25 22:16 | 40.13125 | -76.27712 | 22010 ft | 420 kts | 226° |
| 2026-04-25 22:16 | 40.11172 | -76.30514 | 22001 ft | 415 kts | 237° |
| 2026-04-25 22:16 | 40.09694 | -76.33740 | 22009 ft | 413 kts | 243° |
| 2026-04-25 22:17 | 40.08299 | -76.37038 | 21997 ft | 415 kts | 242° |
| 2026-04-25 22:17 | 40.06863 | -76.40280 | 21611 ft | 413 kts | 241° |
| 2026-04-25 22:17 | 40.05389 | -76.43487 | 21109 ft | 409 kts | 240° |
| 2026-04-25 22:17 | 40.03924 | -76.46638 | 20648 ft | 404 kts | 240° |
| 2026-04-25 22:18 | 40.02477 | -76.49750 | 20181 ft | 399 kts | 241° |
| 2026-04-25 22:18 | 40.01048 | -76.52828 | 19723 ft | 395 kts | 241° |
| 2026-04-25 22:18 | 39.99637 | -76.55873 | 19283 ft | 391 kts | 241° |
| 2026-04-25 22:18 | 39.98237 | -76.58892 | 18830 ft | 387 kts | 241° |
| 2026-04-25 22:19 | 39.96844 | -76.61889 | 18359 ft | 385 kts | 241° |
| 2026-04-25 22:19 | 39.95458 | -76.64868 | 17879 ft | 382 kts | 241° |
| 2026-04-25 22:19 | 39.94085 | -76.67816 | 17392 ft | 379 kts | 241° |
| 2026-04-25 22:19 | 39.92720 | -76.70743 | 16937 ft | 376 kts | 241° |
| 2026-04-25 22:20 | 39.91382 | -76.73609 | 16503 ft | 373 kts | 242° |
| 2026-04-25 22:20 | 39.90036 | -76.76494 | 16056 ft | 371 kts | 242° |
| 2026-04-25 22:20 | 39.88699 | -76.79356 | 15620 ft | 369 kts | 242° |
| 2026-04-25 22:20 | 39.87371 | -76.82197 | 15193 ft | 366 kts | 242° |
| 2026-04-25 22:21 | 39.86046 | -76.85031 | 14765 ft | 365 kts | 242° |
| 2026-04-25 22:21 | 39.84727 | -76.87849 | 14340 ft | 363 kts | 241° |
| 2026-04-25 22:21 | 39.83416 | -76.90642 | 13898 ft | 361 kts | 241° |
| 2026-04-25 22:21 | 39.82110 | -76.93425 | 13445 ft | 359 kts | 241° |
| 2026-04-25 22:22 | 39.80812 | -76.96190 | 12990 ft | 357 kts | 241° |
| 2026-04-25 22:22 | 39.79524 | -76.98930 | 12561 ft | 354 kts | 241° |
| 2026-04-25 22:22 | 39.78248 | -77.01642 | 12149 ft | 350 kts | 241° |
| 2026-04-25 22:22 | 39.76980 | -77.04333 | 11741 ft | 347 kts | 241° |
| 2026-04-25 22:23 | 39.75741 | -77.06958 | 11349 ft | 343 kts | 240° |
| 2026-04-25 22:23 | 39.74501 | -77.09586 | 10943 ft | 340 kts | 240° |
| 2026-04-25 22:23 | 39.73272 | -77.12191 | 10562 ft | 336 kts | 240° |
| 2026-04-25 22:23 | 39.72068 | -77.14738 | 10413 ft | 325 kts | 240° |
| 2026-04-25 22:24 | 39.70905 | -77.17197 | 10265 ft | 314 kts | 240° |
| 2026-04-25 22:24 | 39.69779 | -77.19575 | 10133 ft | 303 kts | 240° |
| 2026-04-25 22:24 | 39.68689 | -77.21866 | 9983 ft | 292 kts | 239° |
| 2026-04-25 22:24 | 39.67442 | -77.23865 | 9897 ft | 280 kts | 227° |
| 2026-04-25 22:25 | 39.66031 | -77.25552 | 9728 ft | 271 kts | 224° |
| 2026-04-25 22:25 | 39.64631 | -77.27147 | 9599 ft | 266 kts | 225° |
| 2026-04-25 22:25 | 39.63254 | -77.28739 | 9489 ft | 265 kts | 225° |
| 2026-04-25 22:25 | 39.61886 | -77.30350 | 9392 ft | 265 kts | 225° |
| 2026-04-25 22:26 | 39.60517 | -77.31978 | 9258 ft | 268 kts | 225° |
| 2026-04-25 22:26 | 39.59159 | -77.33601 | 9142 ft | 269 kts | 225° |
| 2026-04-25 22:26 | 39.57789 | -77.35238 | 8982 ft | 267 kts | 226° |
| 2026-04-25 22:26 | 39.56425 | -77.36859 | 8728 ft | 263 kts | 225° |
| 2026-04-25 22:27 | 39.55089 | -77.38436 | 8491 ft | 257 kts | 225° |
| 2026-04-25 22:27 | 39.53779 | -77.39996 | 8287 ft | 255 kts | 225° |
| 2026-04-25 22:27 | 39.52470 | -77.41544 | 8067 ft | 254 kts | 225° |
| 2026-04-25 22:27 | 39.51159 | -77.43081 | 7846 ft | 254 kts | 225° |
| 2026-04-25 22:28 | 39.49854 | -77.44622 | 7627 ft | 254 kts | 225° |
| 2026-04-25 22:28 | 39.48542 | -77.46141 | 7395 ft | 252 kts | 224° |
| 2026-04-25 22:28 | 39.47262 | -77.47637 | 7188 ft | 249 kts | 224° |
| 2026-04-25 22:28 | 39.45968 | -77.49104 | 7005 ft | 245 kts | 224° |
| 2026-04-25 22:29 | 39.44711 | -77.50600 | 6799 ft | 247 kts | 225° |
| 2026-04-25 22:29 | 39.43426 | -77.52088 | 6612 ft | 248 kts | 223° |
| 2026-04-25 22:29 | 39.42130 | -77.53559 | 6415 ft | 247 kts | 224° |
| 2026-04-25 22:30 | 39.39584 | -77.56479 | 6024 ft | 242 kts | 225° |
| 2026-04-25 22:30 | 39.38340 | -77.57919 | 5862 ft | 239 kts | 223° |
| 2026-04-25 22:30 | 39.37095 | -77.59337 | 5707 ft | 238 kts | 226° |
| 2026-04-25 22:30 | 39.36304 | -77.60337 | 5596 ft | 243 kts | 228° |
| 2026-04-25 22:31 | 39.34641 | -77.62352 | 5417 ft | 246 kts | 225° |
| 2026-04-25 22:31 | 39.33336 | -77.63757 | 5281 ft | 242 kts | 212° |
| 2026-04-25 22:31 | 39.31714 | -77.64226 | 5150 ft | 249 kts | 176° |
| 2026-04-25 22:31 | 39.30013 | -77.63611 | 5024 ft | 264 kts | 161° |
| 2026-04-25 22:32 | 39.28314 | -77.62564 | 4823 ft | 269 kts | 157° |
| 2026-04-25 22:32 | 39.26683 | -77.61453 | 4612 ft | 268 kts | 155° |
| 2026-04-25 22:32 | 39.25056 | -77.60326 | 4394 ft | 261 kts | 155° |
| 2026-04-25 22:32 | 39.23479 | -77.59239 | 4179 ft | 254 kts | 156° |
| 2026-04-25 22:33 | 39.21930 | -77.58177 | 4001 ft | 251 kts | 155° |
| 2026-04-25 22:33 | 39.20372 | -77.57112 | 3825 ft | 254 kts | 155° |
| 2026-04-25 22:33 | 39.18804 | -77.56047 | 3627 ft | 256 kts | 154° |
| 2026-04-25 22:33 | 39.17231 | -77.54978 | 3450 ft | 255 kts | 155° |
| 2026-04-25 22:34 | 39.15662 | -77.53921 | 3241 ft | 253 kts | 155° |
| 2026-04-25 22:34 | 39.14109 | -77.52877 | 3034 ft | 248 kts | 155° |
| 2026-04-25 22:34 | 39.12624 | -77.51882 | 2832 ft | 240 kts | 153° |
| 2026-04-25 22:34 | 39.11176 | -77.50910 | 2648 ft | 229 kts | 152° |
| 2026-04-25 22:35 | 39.09793 | -77.49980 | 2488 ft | 219 kts | 152° |
| 2026-04-25 22:35 | 39.08470 | -77.49094 | 2294 ft | 208 kts | 152° |
| 2026-04-25 22:35 | 39.07214 | -77.48255 | 2147 ft | 200 kts | 151° |
| 2026-04-25 22:35 | 39.05941 | -77.47569 | 1963 ft | 200 kts | 168° |
| 2026-04-25 22:36 | 39.04564 | -77.47413 | 1745 ft | 196 kts | 172° |
| 2026-04-25 22:36 | 39.03231 | -77.47350 | 1634 ft | 186 kts | 175° |
| 2026-04-25 22:36 | 39.01997 | -77.47373 | 1322 ft | 165 kts | 176° |
| 2026-04-25 22:36 | 39.00945 | -77.47390 | 1046 ft | 136 kts | 175° |
| 2026-04-25 22:37 | 38.99964 | -77.47396 | 978 ft | 147 kts | 176° |
| 2026-04-25 22:37 | 38.98912 | -77.47426 | 752 ft | 153 kts | 177° |
| 2026-04-25 22:37 | 38.97876 | -77.47438 | 485 ft | 151 kts | 176° |
| 2026-04-25 22:37 | 38.96853 | -77.47457 | 314 ft | 145 kts | 174° |
| 2026-04-25 22:38 | 38.95933 | -77.47457 | 302 ft | 113 kts | 181° |
| 2026-04-25 22:38 | 38.95298 | -77.47467 | 304 ft | 69 kts | 181° |
| 2026-04-25 22:38 | 38.94972 | -77.47455 | 301 ft | 28 kts | 170° |
| 2026-04-25 22:38 | 38.94823 | -77.47387 | 303 ft | 0 kts | 149° |
| 2026-04-25 22:39 | 38.94823 | -77.47386 | 303 ft | 1 kts | 149° |
| 2026-04-25 22:39 | 38.94811 | -77.47377 | 301 ft | 4 kts | 149° |
| 2026-04-25 22:40 | 38.94756 | -77.47338 | 301 ft | 15 kts | 151° |
| 2026-04-25 22:40 | 38.94676 | -77.47242 | 299 ft | 16 kts | 106° |
| 2026-04-25 22:40 | 38.94671 | -77.47099 | 297 ft | 16 kts | 90° |
| 2026-04-25 22:40 | 38.94670 | -77.46952 | 298 ft | 18 kts | 90° |
| 2026-04-25 22:41 | 38.94668 | -77.46782 | 300 ft | 19 kts | 90° |
| 2026-04-25 22:41 | 38.94667 | -77.46609 | 301 ft | 19 kts | 90° |
| 2026-04-25 22:41 | 38.94665 | -77.46441 | 297 ft | 19 kts | 90° |
| 2026-04-25 22:41 | 38.94664 | -77.46268 | 297 ft | 21 kts | 90° |
| 2026-04-25 22:42 | 38.94661 | -77.46039 | 295 ft | 27 kts | 91° |
| 2026-04-25 22:42 | 38.94661 | -77.45798 | 296 ft | 27 kts | 86° |
| 2026-04-25 22:42 | 38.94769 | -77.45721 | 299 ft | 18 kts | 0° |
| 2026-04-25 22:42 | 38.94892 | -77.45720 | 299 ft | 18 kts | 0° |
| 2026-04-25 22:43 | 38.95023 | -77.45717 | 299 ft | 21 kts | 1° |
| 2026-04-25 22:43 | 38.95190 | -77.45716 | 299 ft | 25 kts | 360° |
| 2026-04-25 22:43 | 38.95366 | -77.45711 | 299 ft | 25 kts | 1° |
| 2026-04-25 22:43 | 38.95543 | -77.45710 | 300 ft | 25 kts | 360° |
| 2026-04-25 22:44 | 38.95707 | -77.45668 | 298 ft | 25 kts | 59° |
| 2026-04-25 22:44 | 38.95756 | -77.45517 | 302 ft | 13 kts | 16° |
| 2026-04-25 22:44 | 38.95839 | -77.45492 | 301 ft | 1 kts | 356° |
| 2026-04-25 22:44 | 38.95847 | -77.45493 | 300 ft | 1 kts | 356° |
| 2026-04-25 22:45 | 38.95864 | -77.45487 | 299 ft | 5 kts | 23° |
| 2026-04-25 22:45 | 38.95887 | -77.45439 | 300 ft | 7 kts | 89° |
| 2026-04-25 22:45 | 38.95886 | -77.45412 | 298 ft | 0 kts | 90° |